Terminal Aerodrome Forecast
Issued by NWS

Current Version | Previous Version | Graphics & Text | Print | Product List | Glossary On
Versions: 1 2 3 4 5 6 7 8 9 10 11 12 13
000
FTUS41 KILN 231122
TAFLCK
TAF
KLCK 231122Z 2312/2412 04007KT P6SM SKC
     FM231800 06010G16KT P6SM FEW240
     FM240000 05007KT P6SM FEW240=

USA.gov is the U.S. government's official web portal to all federal, state and local government web resources and services.